createdAt,value
2023-01-26T00:02:09.399Z,-2.18
2023-01-26T00:04:36.927Z,-1.90
2023-01-26T00:07:04.421Z,-1.97
2023-01-26T00:09:31.921Z,-2.01
2023-01-26T00:11:59.399Z,-2.12
2023-01-26T00:14:26.921Z,-2.23
2023-01-26T00:16:54.751Z,-1.83
2023-01-26T00:19:23.558Z,-2.18
2023-01-26T00:21:51.051Z,-1.57
2023-01-26T00:24:18.577Z,-1.64
2023-01-26T00:26:46.045Z,-2.39
2023-01-26T00:29:13.559Z,-2.31
2023-01-26T00:31:41.126Z,-2.30
2023-01-26T00:34:08.636Z,-2.08
2023-01-26T00:36:37.843Z,-2.12
2023-01-26T00:39:05.380Z,-2.48
2023-01-26T00:41:50.479Z,-2.08
2023-01-26T00:44:17.977Z,-2.62
2023-01-26T00:46:45.481Z,-2.35
2023-01-26T00:49:13.018Z,-2.17
2023-01-26T00:51:41.997Z,-2.45
2023-01-26T00:54:09.609Z,-1.13
2023-01-26T00:56:37.538Z,-2.11
2023-01-26T00:59:05.914Z,-1.47
2023-01-26T01:01:33.519Z,-1.23
2023-01-26T01:04:01.284Z,-1.42
2023-01-26T01:06:28.835Z,-2.32
2023-01-26T01:08:57.594Z,-2.04
2023-01-26T01:11:25.266Z,-2.39
2023-01-26T01:13:52.921Z,-1.94
2023-01-26T01:16:20.671Z,-1.42
2023-01-26T01:18:48.198Z,-2.49
2023-01-26T01:21:18.056Z,-2.31
2023-01-26T01:23:45.700Z,-1.95
2023-01-26T01:26:15.856Z,-2.06
2023-01-26T01:28:44.541Z,-1.84
2023-01-26T01:31:13.890Z,-2.09
2023-01-26T01:33:41.780Z,-1.48
2023-01-26T01:36:11.737Z,-1.59
2023-01-26T01:38:39.252Z,-2.11
2023-01-26T01:41:07.528Z,-2.13
2023-01-26T01:43:37.048Z,-2.47
2023-01-26T01:46:08.412Z,-1.91
2023-01-26T01:48:39.846Z,-2.64
2023-01-26T01:51:12.656Z,-2.91
2023-01-26T01:53:42.553Z,-2.49
2023-01-26T01:56:15.201Z,-1.62
2023-01-26T01:58:44.434Z,-1.36
2023-01-26T02:01:12.327Z,-2.37
2023-01-26T02:03:40.202Z,-2.21
2023-01-26T02:06:10.934Z,-1.78
2023-01-26T02:08:40.243Z,-0.48
2023-01-26T02:11:10.695Z,-0.51
2023-01-26T02:13:38.873Z,-0.27
2023-01-26T02:16:08.303Z,-1.20
2023-01-26T02:18:35.874Z,-0.72
2023-01-26T02:21:04.702Z,-1.31
2023-01-26T02:23:38.858Z,-1.75
2023-01-26T02:26:09.664Z,-2.08
2023-01-26T02:28:37.153Z,-2.05
2023-01-26T02:31:05.210Z,-1.14
2023-01-26T02:33:33.815Z,-2.04
2023-01-26T02:36:02.713Z,-2.07
2023-01-26T02:38:34.429Z,-2.06
2023-01-26T02:41:04.728Z,-1.11
2023-01-26T02:43:32.988Z,-1.85
2023-01-26T02:46:00.745Z,-2.21
2023-01-26T02:48:45.367Z,-1.83
2023-01-26T02:51:13.200Z,-2.27
2023-01-26T02:53:40.697Z,-1.84
2023-01-26T02:56:07.631Z,-2.04
2023-01-26T02:58:36.474Z,-1.38
2023-01-26T03:01:04.008Z,-0.70
2023-01-26T03:03:42.379Z,-0.71
2023-01-26T03:06:10.679Z,-1.93
2023-01-26T03:08:38.739Z,-1.80
2023-01-26T03:11:07.150Z,-2.07
2023-01-26T03:13:35.971Z,-2.01
2023-01-26T03:16:07.713Z,-2.17
2023-01-26T03:18:54.274Z,-2.14
2023-01-26T03:21:39.853Z,-0.52
2023-01-26T03:24:28.309Z,-0.26
2023-01-26T03:27:13.672Z,-0.20
2023-01-26T03:29:42.488Z,-0.02
2023-01-26T03:32:10.048Z,-0.82
2023-01-26T03:34:37.542Z,-0.10
2023-01-26T03:37:05.591Z,-0.08
2023-01-26T03:39:50.519Z,-0.03
2023-01-26T03:42:35.770Z,0.03
2023-01-26T03:45:22.787Z,-0.43
2023-01-26T03:48:08.157Z,-0.39
2023-01-26T03:50:53.417Z,-1.19
2023-01-26T03:53:40.041Z,-0.34
2023-01-26T03:56:21.662Z,-1.91
2023-01-26T03:58:51.433Z,-0.70
2023-01-26T04:01:26.242Z,-0.46
2023-01-26T04:04:12.467Z,-0.19
2023-01-26T04:06:58.929Z,-0.35
2023-01-26T04:09:26.566Z,-2.01
2023-01-26T04:11:54.116Z,-2.27
2023-01-26T04:14:50.132Z,-2.71
2023-01-26T04:17:37.214Z,-2.33
2023-01-26T04:20:23.514Z,-2.97
2023-01-26T04:22:51.022Z,-2.87
2023-01-26T04:25:20.558Z,-2.26
2023-01-26T04:27:48.234Z,-2.88
2023-01-26T04:30:17.665Z,-2.01
2023-01-26T04:32:47.344Z,-2.78
2023-01-26T04:35:14.872Z,-3.01
2023-01-26T04:37:42.409Z,-2.17
2023-01-26T04:40:11.514Z,-1.80
2023-01-26T04:42:39.212Z,-2.48
2023-01-26T04:45:07.415Z,-1.47
2023-01-26T04:47:35.215Z,-1.31
2023-01-26T04:50:04.342Z,-1.40
2023-01-26T04:52:31.806Z,-1.09
2023-01-26T04:54:59.296Z,-1.39
2023-01-26T04:57:26.948Z,-2.28
2023-01-26T04:59:54.465Z,-3.03
2023-01-26T05:02:22.129Z,-2.40
2023-01-26T05:04:49.641Z,-2.91
2023-01-26T05:07:18.423Z,-2.01
2023-01-26T05:09:45.935Z,-2.01
2023-01-26T05:12:30.992Z,-2.73
2023-01-26T05:14:58.469Z,-2.97
2023-01-26T05:17:25.920Z,-2.25
2023-01-26T05:19:53.422Z,-1.68
2023-01-26T05:22:22.207Z,-1.63
2023-01-26T05:24:49.704Z,-2.13
2023-01-26T05:27:23.071Z,-2.96
2023-01-26T05:29:51.508Z,-3.29
2023-01-26T05:32:19.123Z,-2.44
2023-01-26T05:34:46.884Z,-2.65
2023-01-26T05:37:15.189Z,-2.43
2023-01-26T05:39:44.323Z,-2.83
2023-01-26T05:42:12.471Z,-2.80
2023-01-26T05:44:40.184Z,-2.01
2023-01-26T05:47:07.678Z,-2.96
2023-01-26T05:49:35.191Z,-2.59
2023-01-26T05:52:02.712Z,-2.75
2023-01-26T05:54:30.180Z,-3.29
2023-01-26T05:56:58.998Z,-3.30
2023-01-26T05:59:26.465Z,-3.51
2023-01-26T06:01:54.054Z,-3.17
2023-01-26T06:04:21.689Z,-3.20
2023-01-26T06:06:49.233Z,-2.90
2023-01-26T06:09:17.100Z,-3.21
2023-01-26T06:11:44.594Z,-3.23
2023-01-26T06:14:13.529Z,-2.59
2023-01-26T06:16:41.520Z,-2.78
2023-01-26T06:19:10.716Z,-2.20
2023-01-26T06:21:38.508Z,-2.98
2023-01-26T06:24:06.849Z,-2.39
2023-01-26T06:26:34.573Z,-2.37
2023-01-26T06:29:02.279Z,-2.84
2023-01-26T06:31:31.186Z,-2.09
2023-01-26T06:33:58.722Z,-2.40
2023-01-26T06:36:26.520Z,-2.92
2023-01-26T06:38:56.406Z,-2.11
2023-01-26T06:41:24.178Z,-2.17
2023-01-26T06:43:51.690Z,-2.76
2023-01-26T06:46:19.465Z,-3.00
2023-01-26T06:48:48.409Z,-1.99
2023-01-26T06:51:44.025Z,-2.03
2023-01-26T06:54:12.332Z,-1.94
2023-01-26T06:56:40.543Z,-2.17
2023-01-26T06:59:10.608Z,-1.71
2023-01-26T07:01:40.765Z,-2.00
2023-01-26T07:04:09.562Z,-2.09
2023-01-26T07:06:37.175Z,-1.97
2023-01-26T07:09:05.013Z,-2.66
2023-01-26T07:11:32.767Z,-2.83
2023-01-26T07:14:00.498Z,-1.89
2023-01-26T07:16:28.092Z,-1.98
2023-01-26T07:18:55.878Z,-1.86
2023-01-26T07:21:24.688Z,-1.70
2023-01-26T07:23:53.304Z,-1.89
2023-01-26T07:26:21.097Z,-1.77
2023-01-26T07:28:48.666Z,-2.01
2023-01-26T07:31:16.260Z,-2.56
2023-01-26T07:33:43.817Z,-2.47
2023-01-26T07:36:11.908Z,-1.91
2023-01-26T07:38:40.901Z,-1.78
2023-01-26T07:41:10.483Z,-2.46
2023-01-26T07:43:38.473Z,-1.66
2023-01-26T07:46:06.604Z,-1.93
2023-01-26T07:48:34.301Z,-1.99
2023-01-26T07:51:03.582Z,-2.12
2023-01-26T07:53:34.009Z,-2.14
2023-01-26T07:56:13.079Z,-1.69
2023-01-26T07:58:40.892Z,-2.23
2023-01-26T08:01:10.278Z,-2.59
2023-01-26T08:03:38.115Z,-2.85
2023-01-26T08:06:06.518Z,-2.70
2023-01-26T08:08:34.239Z,-2.08
2023-01-26T08:11:02.542Z,-2.51
2023-01-26T08:13:35.735Z,-2.37
2023-01-26T08:16:04.639Z,-2.04
2023-01-26T08:18:32.136Z,-1.82
2023-01-26T08:21:00.395Z,-1.58
2023-01-26T08:23:28.160Z,-1.57
2023-01-26T08:25:55.701Z,-1.85
2023-01-26T08:28:23.356Z,-1.84
2023-01-26T08:30:52.276Z,-1.82
2023-01-26T08:33:19.758Z,-2.03
2023-01-26T08:35:47.248Z,-2.63
2023-01-26T08:38:14.742Z,-2.02
2023-01-26T08:40:42.210Z,-1.80
2023-01-26T08:43:09.707Z,-1.51
2023-01-26T08:45:37.326Z,-1.11
2023-01-26T08:48:07.158Z,-2.05
2023-01-26T08:50:34.638Z,-2.30
2023-01-26T08:53:02.143Z,-2.09
2023-01-26T08:55:29.682Z,-2.05
2023-01-26T08:57:57.602Z,-1.17
2023-01-26T09:00:25.866Z,-0.59
2023-01-26T09:02:59.441Z,-0.58
2023-01-26T09:05:28.945Z,-0.28
2023-01-26T09:07:56.411Z,-0.94
2023-01-26T09:10:23.934Z,-0.22
2023-01-26T09:12:51.650Z,0.11
2023-01-26T09:15:19.220Z,-0.15
2023-01-26T09:17:49.246Z,-0.06
2023-01-26T09:20:17.281Z,-1.65
2023-01-26T09:22:46.324Z,-0.99
2023-01-26T09:25:13.990Z,-1.11
2023-01-26T09:27:41.710Z,-0.04
2023-01-26T09:30:10.489Z,-0.07
2023-01-26T09:32:37.986Z,-0.61
2023-01-26T09:35:06.219Z,0.14
2023-01-26T09:37:33.687Z,-0.21
2023-01-26T09:40:02.466Z,-0.38
2023-01-26T09:42:46.926Z,-1.34
2023-01-26T09:45:23.527Z,-0.78
2023-01-26T09:48:08.092Z,-1.34
2023-01-26T09:50:38.843Z,-0.95
2023-01-26T09:53:11.492Z,-1.00
2023-01-26T09:55:41.401Z,-1.23
2023-01-26T09:58:14.202Z,-0.72
2023-01-26T10:00:46.138Z,-1.04
2023-01-26T10:03:19.844Z,-0.06
2023-01-26T10:05:51.341Z,-0.47
2023-01-26T10:08:23.193Z,-0.07
2023-01-26T10:10:54.742Z,0.48
2023-01-26T10:13:23.281Z,0.62
2023-01-26T10:15:53.589Z,-0.03
2023-01-26T10:18:23.691Z,-0.38
2023-01-26T10:20:54.261Z,0.55
2023-01-26T10:23:24.511Z,-0.11
2023-01-26T10:25:54.823Z,-1.23
2023-01-26T10:28:29.269Z,-0.12
2023-01-26T10:30:57.324Z,0.18
2023-01-26T10:33:27.392Z,0.19
2023-01-26T10:35:55.235Z,0.11
2023-01-26T10:38:39.584Z,-0.37
2023-01-26T10:41:17.879Z,0.47
2023-01-26T10:43:51.699Z,0.45
2023-01-26T10:46:25.787Z,-0.03
2023-01-26T10:48:54.095Z,0.62
2023-01-26T10:51:25.939Z,-0.90
2023-01-26T10:54:21.308Z,-1.49
2023-01-26T10:56:52.943Z,-1.31
2023-01-26T10:59:26.531Z,-1.27
2023-01-26T11:01:55.994Z,-0.55
2023-01-26T11:04:24.294Z,-1.33
2023-01-26T11:06:52.184Z,-1.20
2023-01-26T11:09:21.732Z,-1.28
2023-01-26T11:12:01.754Z,-1.53
2023-01-26T11:14:30.505Z,-0.63
2023-01-26T11:17:07.972Z,-0.61
2023-01-26T11:19:48.272Z,-1.19
2023-01-26T11:22:19.453Z,-0.21
2023-01-26T11:24:52.784Z,-0.59
2023-01-26T11:27:43.097Z,-1.24
2023-01-26T11:30:38.220Z,-1.17
2023-01-26T11:33:13.059Z,-1.02
2023-01-26T11:35:52.510Z,-0.76
2023-01-26T11:38:37.452Z,-0.68
2023-01-26T11:41:24.471Z,-0.93
2023-01-26T11:44:09.331Z,-0.08
2023-01-26T11:47:04.249Z,-0.80
2023-01-26T11:49:47.701Z,-1.11
2023-01-26T11:52:23.503Z,-0.96
2023-01-26T11:55:01.829Z,-0.10
2023-01-26T11:57:33.179Z,-0.12
2023-01-26T12:00:05.638Z,-0.42
2023-01-26T12:02:35.275Z,-0.98
2023-01-26T12:05:05.989Z,-0.66
2023-01-26T12:07:51.142Z,-1.44
2023-01-26T12:10:19.879Z,-1.24
2023-01-26T12:12:51.013Z,-1.34
2023-01-26T12:15:23.588Z,-1.23
2023-01-26T12:17:59.802Z,-1.48
2023-01-26T12:20:30.290Z,-0.93
2023-01-26T12:23:02.430Z,-1.64
2023-01-26T12:25:34.420Z,-1.47
2023-01-26T12:28:09.608Z,-1.48
2023-01-26T12:30:44.323Z,-1.28
2023-01-26T12:33:12.097Z,-1.18
2023-01-26T12:35:51.669Z,-1.62
2023-01-26T12:38:22.969Z,-1.60
2023-01-26T12:40:59.645Z,-1.71
2023-01-26T12:43:39.513Z,-1.46
2023-01-26T12:46:09.138Z,-1.56
2023-01-26T12:48:40.218Z,-1.59
2023-01-26T12:51:10.428Z,-1.23
2023-01-26T12:53:46.840Z,-1.24
2023-01-26T12:56:16.390Z,-0.84
2023-01-26T12:58:46.872Z,-1.41
2023-01-26T13:01:17.311Z,-1.04
2023-01-26T13:03:46.604Z,-0.94
2023-01-26T13:06:21.587Z,-0.98
2023-01-26T13:09:00.559Z,-1.38
2023-01-26T13:11:48.162Z,-1.06
2023-01-26T13:14:33.307Z,-1.42
2023-01-26T13:17:34.208Z,-1.84
2023-01-26T13:20:16.943Z,-1.53
2023-01-26T13:22:44.707Z,-1.16
2023-01-26T13:25:18.707Z,-1.37
2023-01-26T13:27:48.078Z,-1.39
2023-01-26T13:30:45.998Z,-1.36
2023-01-26T13:33:21.162Z,-1.64
2023-01-26T13:35:51.586Z,-1.44
2023-01-26T13:38:29.272Z,-0.81
2023-01-26T13:40:56.892Z,-0.77
2023-01-26T13:43:30.256Z,-1.02
2023-01-26T13:46:08.135Z,-0.50
2023-01-26T13:48:45.181Z,-0.43
2023-01-26T13:51:18.654Z,-0.15
2023-01-26T13:53:56.311Z,-1.06
2023-01-26T13:56:27.487Z,-1.19
2023-01-26T13:58:55.341Z,-0.37
2023-01-26T14:01:23.154Z,-0.89
2023-01-26T14:04:03.567Z,-0.98
2023-01-26T14:06:35.266Z,-0.81
2023-01-26T14:09:04.744Z,-0.69
2023-01-26T14:11:34.198Z,-0.83
2023-01-26T14:14:02.884Z,-0.59
2023-01-26T14:16:32.920Z,-1.13
2023-01-26T14:19:08.019Z,-1.32
2023-01-26T14:21:46.707Z,-1.26
2023-01-26T14:24:14.216Z,-1.31
2023-01-26T14:26:41.946Z,-0.65
2023-01-26T14:29:12.540Z,-1.20
2023-01-26T14:31:40.322Z,-0.95
2023-01-26T14:34:10.660Z,-1.08
2023-01-26T14:36:40.122Z,-1.15
2023-01-26T14:39:17.093Z,-1.49
2023-01-26T14:41:45.237Z,-1.33
2023-01-26T14:44:12.838Z,-1.13
2023-01-26T14:46:48.782Z,-0.70
2023-01-26T14:49:19.305Z,-0.88
2023-01-26T14:51:50.084Z,-0.58
2023-01-26T14:54:20.100Z,-0.79
2023-01-26T14:56:50.519Z,-0.77
2023-01-26T14:59:22.391Z,-0.73
2023-01-26T15:01:50.169Z,-0.91
2023-01-26T15:04:23.625Z,-1.06
2023-01-26T15:06:52.465Z,-0.35
2023-01-26T15:09:22.984Z,-0.34
2023-01-26T15:12:11.747Z,-0.38
2023-01-26T15:14:49.147Z,-0.81
2023-01-26T15:17:32.109Z,-0.49
2023-01-26T15:19:59.645Z,-0.16
2023-01-26T15:22:28.483Z,-0.23
2023-01-26T15:25:05.089Z,-0.63
2023-01-26T15:27:34.630Z,-0.49
2023-01-26T15:30:02.711Z,-0.71
2023-01-26T15:32:32.355Z,-0.82
2023-01-26T15:35:08.742Z,-1.21
2023-01-26T15:37:37.624Z,-1.38
2023-01-26T15:40:06.138Z,-1.32
2023-01-26T15:42:33.653Z,-0.98
2023-01-26T15:45:01.392Z,-1.06
2023-01-26T15:47:28.871Z,-0.44
2023-01-26T15:49:57.187Z,-0.36
2023-01-26T15:52:28.682Z,-0.23
2023-01-26T15:54:57.500Z,-0.05
2023-01-26T15:57:25.001Z,-0.39
2023-01-26T15:59:52.459Z,-0.90
2023-01-26T16:02:21.605Z,-0.53
2023-01-26T16:04:49.292Z,-0.58
2023-01-26T16:07:18.553Z,-0.55
2023-01-26T16:09:48.208Z,-0.55
2023-01-26T16:12:31.906Z,-1.20
2023-01-26T16:14:59.947Z,-1.07
2023-01-26T16:17:27.472Z,-1.23
2023-01-26T16:19:55.079Z,-1.00
2023-01-26T16:22:22.570Z,-0.94
2023-01-26T16:24:50.061Z,-0.79
2023-01-26T16:27:21.089Z,-0.36
2023-01-26T16:29:48.633Z,-0.51
2023-01-26T16:32:25.270Z,-0.54
2023-01-26T16:34:52.822Z,-0.29
2023-01-26T16:37:20.334Z,-0.78
2023-01-26T16:39:47.788Z,-1.05
2023-01-26T16:42:19.821Z,-0.26
2023-01-26T16:44:47.402Z,-0.33
2023-01-26T16:47:14.902Z,-0.33
2023-01-26T16:49:42.421Z,0.06
2023-01-26T16:52:10.700Z,-0.03
2023-01-26T16:54:38.393Z,-0.86
2023-01-26T16:57:06.112Z,-1.00
2023-01-26T16:59:35.010Z,-1.17
2023-01-26T17:02:02.986Z,-1.26
2023-01-26T17:04:30.557Z,-1.20
2023-01-26T17:06:58.170Z,-1.27
2023-01-26T17:09:25.688Z,-1.24
2023-01-26T17:11:53.172Z,-1.28
2023-01-26T17:14:20.659Z,-1.12
2023-01-26T17:16:49.547Z,-1.29
2023-01-26T17:19:17.098Z,-1.13
2023-01-26T17:21:44.576Z,-0.91
2023-01-26T17:24:12.324Z,-1.04
2023-01-26T17:26:39.895Z,-1.06
2023-01-26T17:29:08.531Z,-1.09
2023-01-26T17:31:36.028Z,-1.01
2023-01-26T17:34:04.864Z,-0.87
2023-01-26T17:36:32.395Z,-0.72
2023-01-26T17:38:59.888Z,-0.55
2023-01-26T17:41:28.059Z,-0.70
2023-01-26T17:43:55.572Z,-0.70
2023-01-26T17:46:23.347Z,-0.89
2023-01-26T17:48:51.259Z,-0.88
2023-01-26T17:51:21.955Z,-0.69
2023-01-26T17:53:50.455Z,-0.58
2023-01-26T17:56:20.161Z,-0.30
2023-01-26T17:58:49.012Z,-0.70
2023-01-26T18:01:16.677Z,0.19
2023-01-26T18:03:44.311Z,0.11
2023-01-26T18:06:12.363Z,-0.17
2023-01-26T18:08:41.495Z,0.07
2023-01-26T18:11:11.961Z,-0.45
2023-01-26T18:13:39.596Z,0.15
2023-01-26T18:16:08.282Z,0.26
2023-01-26T18:18:36.221Z,-0.47
2023-01-26T18:21:12.009Z,-0.30
2023-01-26T18:23:40.826Z,-0.39
2023-01-26T18:26:08.628Z,-0.71
2023-01-26T18:28:36.109Z,-0.63
2023-01-26T18:31:09.889Z,-0.92
2023-01-26T18:33:37.581Z,-1.03
2023-01-26T18:36:06.385Z,-0.78
2023-01-26T18:38:33.890Z,-0.34
2023-01-26T18:41:02.831Z,-0.62
2023-01-26T18:43:32.527Z,-0.94
2023-01-26T18:46:02.946Z,-0.92
2023-01-26T18:48:31.000Z,-0.42
2023-01-26T18:50:59.292Z,-0.47
2023-01-26T18:53:26.848Z,-0.83
2023-01-26T18:56:04.896Z,-1.00
2023-01-26T18:58:32.473Z,-0.90
2023-01-26T19:01:00.919Z,-1.04
2023-01-26T19:03:28.433Z,-0.70
2023-01-26T19:05:55.968Z,-0.87
2023-01-26T19:08:23.487Z,-0.83
2023-01-26T19:10:51.465Z,-0.67
2023-01-26T19:13:20.255Z,-0.47
2023-01-26T19:15:48.928Z,-0.10
2023-01-26T19:18:16.995Z,-0.16
2023-01-26T19:20:44.614Z,-0.87
2023-01-26T19:23:12.119Z,-0.34
2023-01-26T19:25:39.619Z,-0.31
2023-01-26T19:28:07.420Z,-0.24
2023-01-26T19:30:36.328Z,-0.06
2023-01-26T19:33:21.548Z,-0.77
2023-01-26T19:35:49.048Z,-0.56
2023-01-26T19:38:16.940Z,-0.34
2023-01-26T19:40:45.768Z,-0.48
2023-01-26T19:43:13.352Z,-0.20
2023-01-26T19:45:42.605Z,-0.76
2023-01-26T19:48:10.079Z,-0.74
2023-01-26T19:50:37.974Z,-0.70
2023-01-26T19:53:07.656Z,-0.90
2023-01-26T19:55:35.275Z,-0.73
2023-01-26T19:58:02.814Z,-0.65
2023-01-26T20:00:30.500Z,-0.78
2023-01-26T20:02:59.302Z,-0.67
2023-01-26T20:05:26.848Z,-0.70
2023-01-26T20:07:54.374Z,0.05
2023-01-26T20:10:21.858Z,-0.09
2023-01-26T20:12:49.542Z,-0.23
2023-01-26T20:15:17.063Z,-0.43
2023-01-26T20:17:44.543Z,-0.41
2023-01-26T20:20:13.803Z,-0.23
2023-01-26T20:22:41.289Z,-0.24
2023-01-26T20:25:11.573Z,-0.22
2023-01-26T20:27:39.264Z,0.28
2023-01-26T20:30:08.087Z,-0.40
2023-01-26T20:32:35.584Z,-0.01
2023-01-26T20:35:03.233Z,0.64
2023-01-26T20:37:32.207Z,0.61
2023-01-26T20:39:59.706Z,0.08
2023-01-26T20:42:27.181Z,0.01
2023-01-26T20:44:55.517Z,-0.46
2023-01-26T20:47:23.066Z,0.01
2023-01-26T20:49:52.769Z,0.32
2023-01-26T20:52:21.764Z,-0.43
2023-01-26T20:54:50.534Z,-0.12
2023-01-26T20:57:18.353Z,-0.11
2023-01-26T20:59:46.075Z,-0.47
2023-01-26T21:02:14.176Z,-0.83
2023-01-26T21:04:41.813Z,-0.80
2023-01-26T21:07:09.800Z,-0.48
2023-01-26T21:09:37.426Z,-0.01
2023-01-26T21:12:07.102Z,-0.02
2023-01-26T21:14:34.652Z,-0.41
2023-01-26T21:17:02.162Z,-0.21
2023-01-26T21:19:29.854Z,-0.31
2023-01-26T21:21:59.182Z,-0.28
2023-01-26T21:24:26.753Z,-0.66
2023-01-26T21:26:54.278Z,-0.13
2023-01-26T21:29:23.356Z,0.33
2023-01-26T21:31:52.179Z,0.19
2023-01-26T21:34:19.723Z,-0.15
2023-01-26T21:36:47.242Z,-0.60
2023-01-26T21:39:15.276Z,-0.60
2023-01-26T21:41:58.839Z,-0.36
2023-01-26T21:44:28.651Z,-0.07
2023-01-26T21:46:57.625Z,0.36
2023-01-26T21:49:25.686Z,-0.21
2023-01-26T21:52:11.429Z,0.16
2023-01-26T21:54:38.919Z,0.13
2023-01-26T21:57:23.750Z,0.17
2023-01-26T21:59:52.633Z,0.20
2023-01-26T22:02:20.160Z,0.26
2023-01-26T22:04:47.666Z,0.04
2023-01-26T22:07:15.209Z,0.21
2023-01-26T22:09:42.680Z,-0.14
2023-01-26T22:12:10.158Z,-0.26
2023-01-26T22:14:37.621Z,0.01
2023-01-26T22:17:06.400Z,-0.09
2023-01-26T22:19:33.881Z,0.12
2023-01-26T22:22:02.215Z,0.34
2023-01-26T22:24:29.823Z,0.20
2023-01-26T22:26:57.485Z,0.61
2023-01-26T22:29:25.338Z,0.50
2023-01-26T22:31:52.909Z,-0.02
2023-01-26T22:34:21.827Z,-0.22
2023-01-26T22:36:49.348Z,-0.49
2023-01-26T22:39:16.905Z,-0.45
2023-01-26T22:41:44.527Z,-0.66
2023-01-26T22:44:12.137Z,-0.62
2023-01-26T22:46:39.658Z,-0.50
2023-01-26T22:49:07.134Z,-0.35
2023-01-26T22:51:37.324Z,-0.42
2023-01-26T22:54:05.802Z,-0.23
2023-01-26T22:56:33.461Z,-0.04
2023-01-26T22:59:01.534Z,-0.22
2023-01-26T23:01:31.137Z,0.11
2023-01-26T23:03:59.268Z,0.26
2023-01-26T23:06:26.980Z,0.26
2023-01-26T23:08:58.033Z,0.30
2023-01-26T23:11:26.733Z,0.58
2023-01-26T23:13:56.008Z,-0.03
2023-01-26T23:16:24.226Z,0.34
2023-01-26T23:18:51.855Z,-0.29
2023-01-26T23:21:19.527Z,-0.15
2023-01-26T23:23:47.228Z,-0.22
2023-01-26T23:26:16.030Z,-0.22
2023-01-26T23:28:44.588Z,-0.47
2023-01-26T23:31:13.784Z,-0.40
2023-01-26T23:33:41.712Z,-0.27
2023-01-26T23:36:11.400Z,-0.53
2023-01-26T23:38:38.945Z,0.06
2023-01-26T23:41:08.430Z,0.31
2023-01-26T23:43:37.258Z,0.22
2023-01-26T23:46:05.771Z,0.50
2023-01-26T23:48:33.249Z,0.54
2023-01-26T23:51:02.823Z,0.62
2023-01-26T23:53:30.939Z,0.23
2023-01-26T23:55:59.012Z,0.45
2023-01-26T23:58:26.597Z,-0.24
